NCAR-RAP Real-Time Weather Data

Output produced by METARs form (21 May 2019  10:33 UTC)
found at http://weather.rap.ucar.edu/surface/
 
RJSY 211000Z 24007KT 9999 FEW018 BKN/// 16/13 Q1005
RJSY 210900Z 24009KT 9999 FEW020 SCT030 BKN/// 17/13 Q1004
RJSY 210800Z 24009KT 9999 FEW020 SCT035 BKN100 17/13 Q1004
RJSY 210700Z 24011KT 9999 FEW020 SCT/// 18/14 Q1004
RJSY 210600Z 25010KT 9999 FEW015 SCT030 BKN100 18/13 Q1004
RJSY 210500Z 24011KT 9999 FEW010 SCT020 BKN070 17/14 Q1004
RJSY 210400Z 25012KT 9999 -SHRA FEW015 SCT035 BKN070 16/14 Q1003
RJSY 210326Z 26016KT 8000 -SHRA FEW006 SCT010 BKN020 14/12 Q1003 RMK 1ST006 4ST010 6CU020 A2964
RJSY 210314Z 26012KT 4000 -SHRA BR FEW003 BKN007 BKN012 16/15 Q1003 RMK 1ST003 5ST007 7ST012 A2963
RJSY 210300Z 27010KT 5000 -SHRA BR FEW003 BKN007 BKN012 16/15 Q1003
RJSY 210238Z 26013KT 240V300 7000 -SHRA FEW003 SCT006 BKN008 16/15 Q1003 RMK 1ST003 3ST006 7ST008 A2963
RJSY 210200Z 12006KT 9999 -SHRA FEW008 SCT040 BKN080 18/17 Q1002
RJSY 210100Z 12009KT 9999 -SHRA FEW005 SCT020 BKN040 18/17 Q1002
RJSY 210000Z 20003KT 150V240 6000 SHRA FEW005 SCT015 BKN035 17/17 Q1002
RJSY 202300Z 12006KT 7000 -SHRA FEW010 SCT030 BKN040 18/16 Q1002
RJSY 202200Z 11014KT 9999 -SHRA FEW030 SCT050 BKN080 17/16 Q1000
RJSY 201200Z 12013KT 9999 FEW040 SCT120 BKN/// 21/12 Q1006
RJSY 201100Z 12013KT 9999 FEW040 SCT150 BKN/// 21/13 Q1006
RJSY 201000Z 09016KT 9999 FEW040 SCT150 BKN/// 22/13 Q1006
RJSY 200900Z 12008KT 9999 FEW040 SCT160 BKN/// 24/12 Q1006
RJSY 200800Z 14013KT 100V170 9999 FEW040 SCT160 BKN/// 26/10 Q1006
RJSY 200700Z 15012KT 120V190 9999 FEW050 SCT/// 28/10 Q1006
RJSY 200600Z 12013KT 9999 FEW050 BKN/// 28/11 Q1006
RJSY 200500Z 12015KT 080V160 9999 FEW040 SCT/// 28/11 Q1007
RJSY 200400Z 14012KT 100V200 9999 FEW040 SCT/// 28/11 Q1008
RJSY 200300Z 11013KT 070V160 9999 FEW040 BKN/// 28/12 Q1009
RJSY 200200Z 13009KT 100V170 9999 FEW040 SCT/// 27/10 Q1010
RJSY 200100Z 10013KT 070V140 9999 FEW040 BKN/// 25/11 Q1010
RJSY 200000Z 10015KT 070V140 9999 FEW040 BKN/// 24/10 Q1011
RJSY 192300Z 11012KT 9999 FEW040 BKN/// 22/12 Q1012
RJSY 192200Z 10013KT 9999 FEW030 BKN/// 20/10 Q1013
RJSY 191200Z 11015KT 9999 FEW040 BKN/// 19/13 Q1017
RJSY 191100Z 11013KT 9999 FEW040 BKN/// 20/12 Q1017
RJSY 191000Z 10019KT 9999 FEW040 BKN/// 21/13 Q1016
RJSY 190900Z 10019KT 9999 FEW050 23/12 Q1016
RJSY 190800Z 09019KT 9999 FEW050 SCT/// 24/13 Q1015
RJSY 190700Z 09021KT 9999 FEW040 26/14 Q1015
RJSY 190600Z 09020KT 9999 FEW040 27/13 Q1016
RJSY 190500Z 08014KT 9999 FEW040 27/12 Q1017
RJSY 190400Z 12006KT 070V170 9999 FEW040 26/11 Q1018
RJSY 190300Z 08011KT 9999 FEW040 25/11 Q1018
RJSY 190200Z 09013KT 9999 FEW040 25/12 Q1019
RJSY 190100Z 09012KT 9999 FEW030 SCT/// 24/12 Q1020
RJSY 190000Z 09014KT 9999 FEW030 SCT180 BKN/// 22/12 Q1020
RJSY 182300Z 09013KT 9999 FEW030 SCT170 BKN/// 21/13 Q1020